sensor_id;sensor_type;location;lat;lon;timestamp;pressure;altitude;pressure_sealevel;temperature;humidity
70302;BME280;57706;56.326;43.882;2023-04-24T00:00:57;100756.59;;;10.51;46.06
70302;BME280;57706;56.326;43.882;2023-04-24T00:03:25;100756.56;;;10.32;46.55
70302;BME280;57706;56.326;43.882;2023-04-24T00:05:51;100764.53;;;10.41;46.29
70302;BME280;57706;56.326;43.882;2023-04-24T00:08:18;100765.97;;;10.35;46.43
70302;BME280;57706;56.326;43.882;2023-04-24T00:10:44;100760.06;;;10.41;46.63
70302;BME280;57706;56.326;43.882;2023-04-24T00:13:11;100757.25;;;10.53;46.16
70302;BME280;57706;56.326;43.882;2023-04-24T00:15:37;100762.03;;;10.39;46.37
70302;BME280;57706;56.326;43.882;2023-04-24T00:18:03;100760.31;;;10.30;46.64
70302;BME280;57706;56.326;43.882;2023-04-24T00:20:29;100760.81;;;10.43;46.22
70302;BME280;57706;56.326;43.882;2023-04-24T00:22:55;100758.44;;;10.40;45.88
70302;BME280;57706;56.326;43.882;2023-04-24T00:25:21;100754.78;;;10.51;45.73
70302;BME280;57706;56.326;43.882;2023-04-24T00:27:47;100760.84;;;10.52;45.80
70302;BME280;57706;56.326;43.882;2023-04-24T00:30:13;100759.22;;;10.51;45.91
70302;BME280;57706;56.326;43.882;2023-04-24T00:32:39;100761.06;;;10.40;45.90
70302;BME280;57706;56.326;43.882;2023-04-24T00:35:06;100771.06;;;10.55;45.53
70302;BME280;57706;56.326;43.882;2023-04-24T00:37:32;100766.41;;;10.49;45.69
70302;BME280;57706;56.326;43.882;2023-04-24T00:39:58;100775.03;;;10.41;45.87
70302;BME280;57706;56.326;43.882;2023-04-24T00:42:24;100765.06;;;10.44;45.68
70302;BME280;57706;56.326;43.882;2023-04-24T00:44:50;100769.03;;;10.30;45.82
70302;BME280;57706;56.326;43.882;2023-04-24T00:47:18;100767.69;;;10.26;46.16
70302;BME280;57706;56.326;43.882;2023-04-24T00:49:44;100767.69;;;10.26;46.07
70302;BME280;57706;56.326;43.882;2023-04-24T00:52:10;100770.09;;;10.19;46.29
70302;BME280;57706;56.326;43.882;2023-04-24T00:54:37;100763.63;;;10.32;45.73
70302;BME280;57706;56.326;43.882;2023-04-24T00:57:04;100768.78;;;10.24;46.16
70302;BME280;57706;56.326;43.882;2023-04-24T00:59:30;100763.66;;;10.14;46.13
70302;BME280;57706;56.326;43.882;2023-04-24T01:01:57;100770.91;;;10.38;45.53
70302;BME280;57706;56.326;43.882;2023-04-24T01:04:24;100765.13;;;10.35;45.77
70302;BME280;57706;56.326;43.882;2023-04-24T01:06:51;100766.41;;;10.12;46.20
70302;BME280;57706;56.326;43.882;2023-04-24T01:09:18;100766.03;;;10.25;46.00
70302;BME280;57706;56.326;43.882;2023-04-24T01:11:44;100771.06;;;10.18;46.16
70302;BME280;57706;56.326;43.882;2023-04-24T01:14:11;100773.00;;;9.98;46.68
70302;BME280;57706;56.326;43.882;2023-04-24T01:16:37;100769.41;;;10.17;46.15
70302;BME280;57706;56.326;43.882;2023-04-24T01:19:05;100773.75;;;10.09;46.34
70302;BME280;57706;56.326;43.882;2023-04-24T01:21:34;100766.72;;;10.09;46.39
70302;BME280;57706;56.326;43.882;2023-04-24T01:24:03;100772.13;;;10.26;46.01
70302;BME280;57706;56.326;43.882;2023-04-24T01:26:29;100774.81;;;10.34;45.92
70302;BME280;57706;56.326;43.882;2023-04-24T01:28:55;100762.13;;;10.11;46.33
70302;BME280;57706;56.326;43.882;2023-04-24T01:31:21;100763.94;;;9.93;46.75
70302;BME280;57706;56.326;43.882;2023-04-24T01:33:47;100765.56;;;10.12;46.54
70302;BME280;57706;56.326;43.882;2023-04-24T01:36:13;100762.22;;;10.19;46.20
70302;BME280;57706;56.326;43.882;2023-04-24T01:38:39;100762.88;;;10.03;46.55
70302;BME280;57706;56.326;43.882;2023-04-24T01:41:05;100768.78;;;9.87;46.94
70302;BME280;57706;56.326;43.882;2023-04-24T01:43:31;100759.22;;;9.96;46.96
70302;BME280;57706;56.326;43.882;2023-04-24T01:45:58;100768.22;;;9.94;46.80
70302;BME280;57706;56.326;43.882;2023-04-24T01:48:24;100759.56;;;10.01;46.63
70302;BME280;57706;56.326;43.882;2023-04-24T01:50:51;100769.34;;;10.09;46.31
70302;BME280;57706;56.326;43.882;2023-04-24T01:53:17;100770.38;;;9.80;47.15
70302;BME280;57706;56.326;43.882;2023-04-24T01:55:43;100778.34;;;9.60;47.78
70302;BME280;57706;56.326;43.882;2023-04-24T01:58:09;100781.94;;;9.87;47.15
70302;BME280;57706;56.326;43.882;2023-04-24T02:00:35;100775.03;;;10.23;46.09
70302;BME280;57706;56.326;43.882;2023-04-24T02:03:01;100772.94;;;10.26;45.98
70302;BME280;57706;56.326;43.882;2023-04-24T02:05:28;100769.03;;;10.12;46.31
70302;BME280;57706;56.326;43.882;2023-04-24T02:07:55;100766.72;;;10.09;46.15
70302;BME280;57706;56.326;43.882;2023-04-24T02:10:21;100774.97;;;10.14;46.19
70302;BME280;57706;56.326;43.882;2023-04-24T02:12:48;100780.81;;;10.26;46.02
70302;BME280;57706;56.326;43.882;2023-04-24T02:15:15;100774.97;;;10.14;46.27
70302;BME280;57706;56.326;43.882;2023-04-24T02:17:42;100782.56;;;10.17;46.10
70302;BME280;57706;56.326;43.882;2023-04-24T02:20:08;100779.56;;;10.30;46.07
70302;BME280;57706;56.326;43.882;2023-04-24T02:22:34;100784.50;;;10.52;45.29
70302;BME280;57706;56.326;43.882;2023-04-24T02:25:02;100779.38;;;10.32;45.95
70302;BME280;57706;56.326;43.882;2023-04-24T02:27:32;100792.22;;;10.35;45.52
70302;BME280;57706;56.326;43.882;2023-04-24T02:29:58;100787.06;;;10.43;45.59
70302;BME280;57706;56.326;43.882;2023-04-24T02:32:25;100793.44;;;10.59;45.24
70302;BME280;57706;56.326;43.882;2023-04-24T02:34:50;100791.03;;;10.48;45.49
70302;BME280;57706;56.326;43.882;2023-04-24T02:37:17;100796.94;;;10.68;45.09
70302;BME280;57706;56.326;43.882;2023-04-24T02:39:43;100791.88;;;10.74;44.98
70302;BME280;57706;56.326;43.882;2023-04-24T02:42:09;100794.88;;;10.80;44.37
70302;BME280;57706;56.326;43.882;2023-04-24T02:44:35;100792.59;;;10.77;44.54
70302;BME280;57706;56.326;43.882;2023-04-24T02:47:01;100805.09;;;10.83;44.21
70302;BME280;57706;56.326;43.882;2023-04-24T02:49:27;100807.38;;;10.78;44.38
70302;BME280;57706;56.326;43.882;2023-04-24T02:51:54;100801.19;;;10.87;44.11
70302;BME280;57706;56.326;43.882;2023-04-24T02:54:20;100809.94;;;10.69;44.68
70302;BME280;57706;56.326;43.882;2023-04-24T02:56:46;100812.91;;;10.74;44.80
70302;BME280;57706;56.326;43.882;2023-04-24T02:59:12;100812.84;;;10.84;44.40
70302;BME280;57706;56.326;43.882;2023-04-24T03:01:38;100818.00;;;10.94;44.15
70302;BME280;57706;56.326;43.882;2023-04-24T03:04:04;100825.34;;;11.09;43.78
70302;BME280;57706;56.326;43.882;2023-04-24T03:06:30;100824.91;;;10.95;44.15
70302;BME280;57706;56.326;43.882;2023-04-24T03:09:01;100824.06;;;11.21;43.68
70302;BME280;57706;56.326;43.882;2023-04-24T03:11:27;100817.88;;;11.31;43.41
70302;BME280;57706;56.326;43.882;2023-04-24T03:13:53;100831.03;;;11.31;43.49
70302;BME280;57706;56.326;43.882;2023-04-24T03:16:19;100830.56;;;11.35;43.37
70302;BME280;57706;56.326;43.882;2023-04-24T03:18:46;100834.06;;;11.44;43.18
70302;BME280;57706;56.326;43.882;2023-04-24T03:21:13;100835.75;;;11.53;43.09
70302;BME280;57706;56.326;43.882;2023-04-24T03:23:40;100832.16;;;11.63;42.81
70302;BME280;57706;56.326;43.882;2023-04-24T03:26:07;100839.25;;;11.62;42.79
70302;BME280;57706;56.326;43.882;2023-04-24T03:28:35;100836.50;;;11.80;42.66
70302;BME280;57706;56.326;43.882;2023-04-24T03:31:03;100835.50;;;11.81;42.46
70302;BME280;57706;56.326;43.882;2023-04-24T03:33:33;100830.78;;;11.93;42.34
70302;BME280;57706;56.326;43.882;2023-04-24T03:36:00;100844.84;;;12.10;42.17
70302;BME280;57706;56.326;43.882;2023-04-24T03:38:34;100848.81;;;12.23;41.69
70302;BME280;57706;56.326;43.882;2023-04-24T03:41:20;100845.53;;;12.21;41.71
70302;BME280;57706;56.326;43.882;2023-04-24T03:43:54;100843.25;;;12.34;41.37
70302;BME280;57706;56.326;43.882;2023-04-24T03:46:20;100852.16;;;12.42;41.27
70302;BME280;57706;56.326;43.882;2023-04-24T03:48:52;100850.03;;;12.45;41.05
70302;BME280;57706;56.326;43.882;2023-04-24T03:51:22;100852.47;;;12.63;40.61
70302;BME280;57706;56.326;43.882;2023-04-24T03:53:51;100855.31;;;12.70;40.28
70302;BME280;57706;56.326;43.882;2023-04-24T03:56:20;100852.47;;;12.80;40.33
70302;BME280;57706;56.326;43.882;2023-04-24T03:58:46;100854.63;;;12.93;39.96
70302;BME280;57706;56.326;43.882;2023-04-24T04:01:12;100852.81;;;13.02;39.91
70302;BME280;57706;56.326;43.882;2023-04-24T04:04:01;100859.56;;;13.13;39.44
70302;BME280;57706;56.326;43.882;2023-04-24T04:06:29;100853.41;;;13.29;39.05
70302;BME280;57706;56.326;43.882;2023-04-24T04:08:58;100860.78;;;13.42;38.39
70302;BME280;57706;56.326;43.882;2023-04-24T04:11:24;100861.28;;;13.54;38.20
70302;BME280;57706;56.326;43.882;2023-04-24T04:13:50;100864.88;;;13.61;38.23
70302;BME280;57706;56.326;43.882;2023-04-24T04:16:19;100857.44;;;13.65;38.11
70302;BME280;57706;56.326;43.882;2023-04-24T04:18:47;100862.22;;;13.69;38.25
70302;BME280;57706;56.326;43.882;2023-04-24T04:21:14;100870.41;;;13.83;37.79
70302;BME280;57706;56.326;43.882;2023-04-24T04:23:40;100867.38;;;13.94;37.58
70302;BME280;57706;56.326;43.882;2023-04-24T04:26:15;100867.66;;;14.08;37.33
70302;BME280;57706;56.326;43.882;2023-04-24T04:28:59;100868.56;;;14.15;36.82
70302;BME280;57706;56.326;43.882;2023-04-24T04:31:27;100869.28;;;14.09;36.92
70302;BME280;57706;56.326;43.882;2023-04-24T04:33:54;100871.78;;;14.34;36.57
70302;BME280;57706;56.326;43.882;2023-04-24T04:36:21;100872.38;;;14.44;36.14
70302;BME280;57706;56.326;43.882;2023-04-24T04:38:52;100875.19;;;14.66;36.02
70302;BME280;57706;56.326;43.882;2023-04-24T04:41:40;100875.44;;;14.79;35.33
70302;BME280;57706;56.326;43.882;2023-04-24T04:44:08;100879.78;;;14.95;35.27
70302;BME280;57706;56.326;43.882;2023-04-24T04:46:35;100879.50;;;15.05;35.23
70302;BME280;57706;56.326;43.882;2023-04-24T04:49:10;100881.72;;;15.17;34.54
70302;BME280;57706;56.326;43.882;2023-04-24T04:51:37;100878.69;;;15.35;34.58
70302;BME280;57706;56.326;43.882;2023-04-24T04:54:03;100891.97;;;15.50;34.37
70302;BME280;57706;56.326;43.882;2023-04-24T04:56:29;100886.28;;;15.53;34.36
70302;BME280;57706;56.326;43.882;2023-04-24T04:58:57;100887.94;;;15.54;34.10
70302;BME280;57706;56.326;43.882;2023-04-24T05:01:25;100893.50;;;15.59;34.07
70302;BME280;57706;56.326;43.882;2023-04-24T05:03:54;100889.38;;;15.72;34.12
70302;BME280;57706;56.326;43.882;2023-04-24T05:06:20;100887.97;;;16.06;33.45
70302;BME280;57706;56.326;43.882;2023-04-24T05:08:46;100888.19;;;16.26;32.94
70302;BME280;57706;56.326;43.882;2023-04-24T05:11:32;100883.88;;;16.40;32.93
70302;BME280;57706;56.326;43.882;2023-04-24T05:14:00;100892.81;;;16.39;32.68
70302;BME280;57706;56.326;43.882;2023-04-24T05:16:37;100893.56;;;16.55;33.13
70302;BME280;57706;56.326;43.882;2023-04-24T05:19:04;100882.22;;;16.61;32.46
70302;BME280;57706;56.326;43.882;2023-04-24T05:21:35;100888.00;;;16.71;32.40
70302;BME280;57706;56.326;43.882;2023-04-24T05:24:02;100892.09;;;16.96;32.14
70302;BME280;57706;56.326;43.882;2023-04-24T05:26:46;100888.50;;;17.39;31.27
70302;BME280;57706;56.326;43.882;2023-04-24T05:29:14;100883.47;;;17.93;30.53
70302;BME280;57706;56.326;43.882;2023-04-24T05:31:41;100881.31;;;18.10;30.22
70302;BME280;57706;56.326;43.882;2023-04-24T05:34:07;100876.84;;;18.37;29.88
70302;BME280;57706;56.326;43.882;2023-04-24T05:36:38;100885.03;;;18.90;28.83
70302;BME280;57706;56.326;43.882;2023-04-24T05:39:04;100888.16;;;19.07;28.72
70302;BME280;57706;56.326;43.882;2023-04-24T05:41:30;100886.50;;;19.06;28.56
70302;BME280;57706;56.326;43.882;2023-04-24T05:43:56;100882.78;;;18.53;29.24
70302;BME280;57706;56.326;43.882;2023-04-24T05:46:22;100891.16;;;18.23;29.45
70302;BME280;57706;56.326;43.882;2023-04-24T05:48:49;100882.75;;;18.26;29.66
70302;BME280;57706;56.326;43.882;2023-04-24T05:51:16;100890.31;;;18.29;29.10
70302;BME280;57706;56.326;43.882;2023-04-24T05:53:42;100892.19;;;18.35;28.95
70302;BME280;57706;56.326;43.882;2023-04-24T05:56:08;100892.63;;;18.52;28.66
70302;BME280;57706;56.326;43.882;2023-04-24T05:58:35;100889.13;;;18.52;28.54
70302;BME280;57706;56.326;43.882;2023-04-24T06:01:01;100891.81;;;18.65;28.64
70302;BME280;57706;56.326;43.882;2023-04-24T06:03:28;100898.38;;;18.90;27.96
70302;BME280;57706;56.326;43.882;2023-04-24T06:05:54;100895.31;;;19.20;27.43
70302;BME280;57706;56.326;43.882;2023-04-24T06:08:21;100892.81;;;19.91;26.54
70302;BME280;57706;56.326;43.882;2023-04-24T06:10:48;100898.31;;;20.42;25.50
70302;BME280;57706;56.326;43.882;2023-04-24T06:13:16;100900.09;;;21.62;24.33
70302;BME280;57706;56.326;43.882;2023-04-24T06:15:53;100889.88;;;26.41;19.26
70302;BME280;57706;56.326;43.882;2023-04-24T06:18:27;100888.84;;;30.36;15.06
70302;BME280;57706;56.326;43.882;2023-04-24T06:20:53;100880.75;;;33.05;13.58
70302;BME280;57706;56.326;43.882;2023-04-24T06:23:20;100872.44;;;33.38;12.33
70302;BME280;57706;56.326;43.882;2023-04-24T06:25:47;100878.81;;;30.66;14.32
70302;BME280;57706;56.326;43.882;2023-04-24T06:28:13;100881.09;;;31.70;13.36
70302;BME280;57706;56.326;43.882;2023-04-24T06:30:39;100880.88;;;36.29;10.56
70302;BME280;57706;56.326;43.882;2023-04-24T06:33:05;100871.16;;;36.40;10.29
70302;BME280;57706;56.326;43.882;2023-04-24T06:35:31;100869.09;;;37.91;9.32
70302;BME280;57706;56.326;43.882;2023-04-24T06:37:56;100870.16;;;37.99;8.54
70302;BME280;57706;56.326;43.882;2023-04-24T06:40:22;100873.22;;;37.97;9.09
70302;BME280;57706;56.326;43.882;2023-04-24T06:42:48;100871.84;;;39.41;8.19
70302;BME280;57706;56.326;43.882;2023-04-24T06:45:14;100868.94;;;40.71;7.37
70302;BME280;57706;56.326;43.882;2023-04-24T06:47:40;100867.84;;;42.37;6.65
70302;BME280;57706;56.326;43.882;2023-04-24T06:50:06;100870.44;;;39.88;7.47
70302;BME280;57706;56.326;43.882;2023-04-24T06:52:32;100870.63;;;39.95;7.43
70302;BME280;57706;56.326;43.882;2023-04-24T06:55:03;100866.56;;;40.53;7.11
70302;BME280;57706;56.326;43.882;2023-04-24T06:57:31;100880.44;;;39.51;7.81
70302;BME280;57706;56.326;43.882;2023-04-24T06:59:57;100873.66;;;39.90;7.46
70302;BME280;57706;56.326;43.882;2023-04-24T07:02:25;100874.28;;;39.99;7.55
70302;BME280;57706;56.326;43.882;2023-04-24T07:04:51;100873.31;;;40.08;7.39
70302;BME280;57706;56.326;43.882;2023-04-24T07:07:17;100868.97;;;41.66;6.68
70302;BME280;57706;56.326;43.882;2023-04-24T07:09:42;100868.25;;;41.49;6.92
70302;BME280;57706;56.326;43.882;2023-04-24T07:12:10;100866.56;;;43.12;5.77
70302;BME280;57706;56.326;43.882;2023-04-24T07:14:39;100868.59;;;42.34;5.99
70302;BME280;57706;56.326;43.882;2023-04-24T07:17:05;100859.03;;;41.22;6.71
70302;BME280;57706;56.326;43.882;2023-04-24T07:19:34;100860.38;;;40.56;6.69
70302;BME280;57706;56.326;43.882;2023-04-24T07:22:03;100854.84;;;41.28;6.64
70302;BME280;57706;56.326;43.882;2023-04-24T07:24:29;100869.28;;;43.39;5.56
70302;BME280;57706;56.326;43.882;2023-04-24T07:26:58;100869.53;;;42.96;5.78
70302;BME280;57706;56.326;43.882;2023-04-24T07:29:23;100873.47;;;42.44;5.86
70302;BME280;57706;56.326;43.882;2023-04-24T07:31:50;100864.38;;;42.17;6.22
70302;BME280;57706;56.326;43.882;2023-04-24T07:34:16;100868.31;;;41.53;6.27
70302;BME280;57706;56.326;43.882;2023-04-24T07:36:41;100872.81;;;41.81;6.32
70302;BME280;57706;56.326;43.882;2023-04-24T07:39:07;100880.16;;;39.16;7.46
70302;BME280;57706;56.326;43.882;2023-04-24T07:41:34;100866.34;;;41.14;6.41
70302;BME280;57706;56.326;43.882;2023-04-24T07:43:59;100858.53;;;41.55;6.33
70302;BME280;57706;56.326;43.882;2023-04-24T07:46:25;100863.41;;;41.42;6.09
70302;BME280;57706;56.326;43.882;2023-04-24T07:48:55;100858.75;;;40.55;6.79
70302;BME280;57706;56.326;43.882;2023-04-24T07:51:21;100859.06;;;44.30;5.48
70302;BME280;57706;56.326;43.882;2023-04-24T07:53:47;100858.88;;;45.56;5.06
70302;BME280;57706;56.326;43.882;2023-04-24T07:56:13;100858.75;;;45.09;4.63
70302;BME280;57706;56.326;43.882;2023-04-24T07:58:39;100869.13;;;45.34;4.77
70302;BME280;57706;56.326;43.882;2023-04-24T08:01:05;100858.97;;;41.38;5.94
70302;BME280;57706;56.326;43.882;2023-04-24T08:03:31;100859.34;;;41.56;6.35
70302;BME280;57706;56.326;43.882;2023-04-24T08:05:57;100837.34;;;44.35;4.94
70302;BME280;57706;56.326;43.882;2023-04-24T08:08:23;100839.03;;;46.67;4.48
70302;BME280;57706;56.326;43.882;2023-04-24T08:10:49;100838.34;;;45.97;4.53
70302;BME280;57706;56.326;43.882;2023-04-24T08:13:15;100835.94;;;46.14;4.65
70302;BME280;57706;56.326;43.882;2023-04-24T08:15:41;100840.84;;;44.88;4.78
70302;BME280;57706;56.326;43.882;2023-04-24T08:18:07;100840.78;;;40.62;6.69
70302;BME280;57706;56.326;43.882;2023-04-24T08:20:34;100842.47;;;40.82;6.40
70302;BME280;57706;56.326;43.882;2023-04-24T08:23:00;100845.53;;;39.68;7.03
70302;BME280;57706;56.326;43.882;2023-04-24T08:25:26;100842.06;;;41.59;6.24
70302;BME280;57706;56.326;43.882;2023-04-24T08:27:52;100835.00;;;43.47;5.76
70302;BME280;57706;56.326;43.882;2023-04-24T08:30:18;100830.41;;;46.03;4.62
70302;BME280;57706;56.326;43.882;2023-04-24T08:32:44;100813.25;;;46.63;4.54
70302;BME280;57706;56.326;43.882;2023-04-24T08:35:10;100821.59;;;48.71;3.68
70302;BME280;57706;56.326;43.882;2023-04-24T08:37:36;100817.03;;;48.15;3.81
70302;BME280;57706;56.326;43.882;2023-04-24T08:40:06;100817.94;;;47.55;3.72
70302;BME280;57706;56.326;43.882;2023-04-24T08:42:37;100814.63;;;47.75;3.85
70302;BME280;57706;56.326;43.882;2023-04-24T08:45:03;100810.19;;;45.81;4.32
70302;BME280;57706;56.326;43.882;2023-04-24T08:47:30;100816.09;;;45.75;4.46
70302;BME280;57706;56.326;43.882;2023-04-24T08:49:57;100797.41;;;45.21;4.52
70302;BME280;57706;56.326;43.882;2023-04-24T08:52:25;100795.91;;;44.50;4.65
70302;BME280;57706;56.326;43.882;2023-04-24T08:54:52;100794.31;;;44.49;4.95
70302;BME280;57706;56.326;43.882;2023-04-24T08:57:19;100787.78;;;46.75;4.25
70302;BME280;57706;56.326;43.882;2023-04-24T08:59:45;100794.63;;;45.32;4.44
70302;BME280;57706;56.326;43.882;2023-04-24T09:02:13;100798.25;;;44.44;5.19
70302;BME280;57706;56.326;43.882;2023-04-24T09:04:41;100785.81;;;44.87;4.73
70302;BME280;57706;56.326;43.882;2023-04-24T09:07:09;100774.09;;;45.51;4.60
70302;BME280;57706;56.326;43.882;2023-04-24T09:09:38;100773.22;;;45.18;4.39
70302;BME280;57706;56.326;43.882;2023-04-24T09:12:04;100778.06;;;45.58;4.70
70302;BME280;57706;56.326;43.882;2023-04-24T09:14:30;100777.25;;;43.83;5.20
70302;BME280;57706;56.326;43.882;2023-04-24T09:16:57;100772.69;;;44.73;5.19
70302;BME280;57706;56.326;43.882;2023-04-24T09:19:23;100772.38;;;43.69;5.08
70302;BME280;57706;56.326;43.882;2023-04-24T09:21:49;100769.81;;;42.77;5.45
70302;BME280;57706;56.326;43.882;2023-04-24T09:24:19;100759.53;;;44.55;4.94
70302;BME280;57706;56.326;43.882;2023-04-24T09:26:49;100762.19;;;45.98;4.40
70302;BME280;57706;56.326;43.882;2023-04-24T09:29:22;100766.94;;;47.73;3.79
70302;BME280;57706;56.326;43.882;2023-04-24T09:31:48;100760.66;;;49.31;3.33
70302;BME280;57706;56.326;43.882;2023-04-24T09:34:14;100720.06;;;49.51;3.23
70302;BME280;57706;56.326;43.882;2023-04-24T09:36:42;100751.09;;;45.91;4.17
70302;BME280;57706;56.326;43.882;2023-04-24T09:39:10;100754.91;;;46.55;4.23
70302;BME280;57706;56.326;43.882;2023-04-24T09:41:51;100769.72;;;45.50;4.45
70302;BME280;57706;56.326;43.882;2023-04-24T09:44:22;100762.28;;;43.09;5.52
70302;BME280;57706;56.326;43.882;2023-04-24T09:46:58;100758.13;;;43.64;5.04
70302;BME280;57706;56.326;43.882;2023-04-24T09:49:29;100745.59;;;44.37;5.02
70302;BME280;57706;56.326;43.882;2023-04-24T09:52:06;100744.63;;;44.92;4.42
70302;BME280;57706;56.326;43.882;2023-04-24T09:54:32;100748.72;;;43.76;4.80
70302;BME280;57706;56.326;43.882;2023-04-24T09:56:59;100739.53;;;45.05;4.59
70302;BME280;57706;56.326;43.882;2023-04-24T09:59:26;100742.38;;;45.71;4.40
70302;BME280;57706;56.326;43.882;2023-04-24T10:01:51;100741.59;;;45.56;4.19
70302;BME280;57706;56.326;43.882;2023-04-24T10:04:26;100741.69;;;44.45;4.81
70302;BME280;57706;56.326;43.882;2023-04-24T10:06:55;100742.94;;;42.44;5.44
70302;BME280;57706;56.326;43.882;2023-04-24T10:09:23;100735.22;;;42.57;5.25
70302;BME280;57706;56.326;43.882;2023-04-24T10:11:51;100740.59;;;42.76;5.57
70302;BME280;57706;56.326;43.882;2023-04-24T10:14:19;100732.09;;;43.72;4.70
70302;BME280;57706;56.326;43.882;2023-04-24T10:16:46;100727.63;;;44.09;4.91
70302;BME280;57706;56.326;43.882;2023-04-24T10:19:14;100723.28;;;47.62;3.56
70302;BME280;57706;56.326;43.882;2023-04-24T10:21:43;100717.59;;;46.64;3.67
70302;BME280;57706;56.326;43.882;2023-04-24T10:24:14;100723.56;;;43.92;4.63
70302;BME280;57706;56.326;43.882;2023-04-24T10:26:41;100723.78;;;42.58;5.17
70302;BME280;57706;56.326;43.882;2023-04-24T10:29:08;100723.19;;;43.07;5.36
70302;BME280;57706;56.326;43.882;2023-04-24T10:31:36;100729.44;;;44.50;4.37
70302;BME280;57706;56.326;43.882;2023-04-24T10:34:05;100705.78;;;44.71;4.52
70302;BME280;57706;56.326;43.882;2023-04-24T10:36:34;100732.84;;;45.32;3.88
70302;BME280;57706;56.326;43.882;2023-04-24T10:39:03;100708.94;;;41.15;5.70
70302;BME280;57706;56.326;43.882;2023-04-24T10:41:32;100712.69;;;38.37;7.26
70302;BME280;57706;56.326;43.882;2023-04-24T10:44:13;100721.41;;;35.89;8.02
70302;BME280;57706;56.326;43.882;2023-04-24T10:46:43;100717.03;;;38.13;7.27
70302;BME280;57706;56.326;43.882;2023-04-24T10:49:09;100710.09;;;41.14;5.99
70302;BME280;57706;56.326;43.882;2023-04-24T10:51:49;100708.50;;;40.94;5.73
70302;BME280;57706;56.326;43.882;2023-04-24T10:54:27;100717.06;;;41.75;5.69
70302;BME280;57706;56.326;43.882;2023-04-24T10:57:25;100706.63;;;43.48;4.69
70302;BME280;57706;56.326;43.882;2023-04-24T10:59:39;100702.88;;;42.91;4.45
70302;BME280;57706;56.326;43.882;2023-04-24T11:02:07;100694.78;;;44.07;4.37
70302;BME280;57706;56.326;43.882;2023-04-24T11:04:33;100701.13;;;45.11;4.27
70302;BME280;57706;56.326;43.882;2023-04-24T11:07:02;100702.72;;;45.01;3.92
70302;BME280;57706;56.326;43.882;2023-04-24T11:09:30;100702.22;;;43.92;4.42
70302;BME280;57706;56.326;43.882;2023-04-24T11:14:29;100690.31;;;46.37;3.58
70302;BME280;57706;56.326;43.882;2023-04-24T11:16:55;100689.91;;;47.09;3.35
70302;BME280;57706;56.326;43.882;2023-04-24T11:22:02;100684.50;;;42.11;5.40
70302;BME280;57706;56.326;43.882;2023-04-24T11:27:17;100676.91;;;43.94;4.38
70302;BME280;57706;56.326;43.882;2023-04-24T11:32:25;100672.16;;;42.01;4.95
70302;BME280;57706;56.326;43.882;2023-04-24T11:34:57;100670.16;;;42.02;4.99
70302;BME280;57706;56.326;43.882;2023-04-24T11:37:47;100666.19;;;41.72;5.01
70302;BME280;57706;56.326;43.882;2023-04-24T11:40:19;100677.75;;;40.32;5.69
70302;BME280;57706;56.326;43.882;2023-04-24T11:42:47;100669.16;;;40.18;6.07
70302;BME280;57706;56.326;43.882;2023-04-24T11:45:15;100671.88;;;39.98;6.03
70302;BME280;57706;56.326;43.882;2023-04-24T11:47:43;100671.28;;;39.12;6.44
70302;BME280;57706;56.326;43.882;2023-04-24T11:50:12;100672.00;;;39.09;6.26
70302;BME280;57706;56.326;43.882;2023-04-24T11:52:40;100668.72;;;40.16;5.95
70302;BME280;57706;56.326;43.882;2023-04-24T11:55:22;100655.50;;;40.22;6.03
70302;BME280;57706;56.326;43.882;2023-04-24T11:57:51;100667.38;;;39.58;6.15
70302;BME280;57706;56.326;43.882;2023-04-24T12:00:23;100656.06;;;38.45;6.45
70302;BME280;57706;56.326;43.882;2023-04-24T12:02:49;100647.81;;;39.15;6.29
70302;BME280;57706;56.326;43.882;2023-04-24T12:05:23;100658.16;;;40.18;5.99
70302;BME280;57706;56.326;43.882;2023-04-24T12:07:49;100642.41;;;40.94;5.43
70302;BME280;57706;56.326;43.882;2023-04-24T12:10:20;100648.16;;;40.29;5.88
70302;BME280;57706;56.326;43.882;2023-04-24T12:12:47;100645.47;;;40.49;5.93
70302;BME280;57706;56.326;43.882;2023-04-24T12:15:13;100642.47;;;41.94;5.39
70302;BME280;57706;56.326;43.882;2023-04-24T12:17:41;100638.63;;;42.98;4.60
70302;BME280;57706;56.326;43.882;2023-04-24T12:20:08;100625.50;;;43.89;4.56
70302;BME280;57706;56.326;43.882;2023-04-24T12:25:16;100630.25;;;45.03;4.21
70302;BME280;57706;56.326;43.882;2023-04-24T12:27:51;100646.75;;;42.15;4.96
70302;BME280;57706;56.326;43.882;2023-04-24T12:30:18;100630.34;;;39.39;6.14
70302;BME280;57706;56.326;43.882;2023-04-24T12:32:48;100629.06;;;40.17;5.94
70302;BME280;57706;56.326;43.882;2023-04-24T12:35:24;100619.84;;;41.31;5.47
70302;BME280;57706;56.326;43.882;2023-04-24T12:37:50;100616.94;;;43.00;4.91
70302;BME280;57706;56.326;43.882;2023-04-24T12:40:17;100618.34;;;43.28;4.79
70302;BME280;57706;56.326;43.882;2023-04-24T12:42:47;100623.56;;;41.96;5.33
70302;BME280;57706;56.326;43.882;2023-04-24T12:45:14;100615.72;;;41.45;5.56
70302;BME280;57706;56.326;43.882;2023-04-24T12:47:40;100609.81;;;42.27;4.84
70302;BME280;57706;56.326;43.882;2023-04-24T12:50:11;100614.69;;;41.80;5.43
70302;BME280;57706;56.326;43.882;2023-04-24T12:52:38;100606.28;;;41.69;5.19
70302;BME280;57706;56.326;43.882;2023-04-24T12:55:05;100617.19;;;40.32;5.90
70302;BME280;57706;56.326;43.882;2023-04-24T12:57:34;100602.00;;;40.78;5.43
70302;BME280;57706;56.326;43.882;2023-04-24T13:00:01;100609.22;;;40.47;5.93
70302;BME280;57706;56.326;43.882;2023-04-24T13:02:33;100597.47;;;36.79;7.24